createdAt,value
2022-12-04T00:01:26.131Z,63.58
2022-12-04T00:03:54.206Z,65.37
2022-12-04T00:06:21.708Z,64.62
2022-12-04T00:08:49.049Z,62.48
2022-12-04T00:11:17.912Z,61.45
2022-12-04T00:13:45.183Z,62.73
2022-12-04T00:16:13.712Z,63.79
2022-12-04T00:18:41.427Z,64.81
2022-12-04T00:21:09.656Z,63.16
2022-12-04T00:23:37.541Z,61.60
2022-12-04T00:26:06.349Z,62.48
2022-12-04T00:28:34.121Z,67.07
2022-12-04T00:31:04.835Z,66.05
2022-12-04T00:33:32.409Z,63.40
2022-12-04T00:36:00.181Z,62.16
2022-12-04T00:38:27.488Z,61.93
2022-12-04T00:40:55.242Z,62.78
2022-12-04T00:43:23.218Z,63.72
2022-12-04T00:45:50.674Z,64.69
2022-12-04T00:48:18.191Z,61.38
2022-12-04T00:50:45.445Z,61.46
2022-12-04T00:53:12.802Z,63.12
2022-12-04T00:55:40.559Z,67.02
2022-12-04T00:58:07.987Z,66.01
2022-12-04T01:00:35.781Z,62.69
2022-12-04T01:03:03.405Z,63.23
2022-12-04T01:05:30.739Z,63.99
2022-12-04T01:07:58.014Z,65.58
2022-12-04T01:10:25.588Z,64.01
2022-12-04T01:12:55.572Z,61.25
2022-12-04T01:15:22.814Z,63.48
2022-12-04T01:17:50.297Z,64.76
2022-12-04T01:20:17.667Z,61.70
2022-12-04T01:22:44.864Z,62.33
2022-12-04T01:25:12.362Z,64.32
2022-12-04T01:27:39.652Z,68.17
2022-12-04T01:30:07.235Z,64.43
2022-12-04T01:32:34.694Z,65.42
2022-12-04T01:35:01.962Z,63.36
2022-12-04T01:37:30.534Z,62.56
2022-12-04T01:39:58.496Z,64.84
2022-12-04T01:42:25.925Z,64.30
2022-12-04T01:45:12.102Z,66.46
2022-12-04T01:47:39.577Z,64.77
2022-12-04T01:50:07.049Z,64.07
2022-12-04T01:52:34.332Z,66.83
2022-12-04T01:55:01.842Z,66.82
2022-12-04T01:57:29.856Z,67.13
2022-12-04T02:00:08.956Z,68.14
2022-12-04T02:02:37.533Z,67.14
2022-12-04T02:05:05.812Z,66.66
2022-12-04T02:07:33.104Z,65.20
2022-12-04T02:10:06.284Z,66.26
2022-12-04T02:12:36.833Z,68.25
2022-12-04T02:15:10.485Z,66.58
2022-12-04T02:17:46.875Z,69.63
2022-12-04T02:20:17.014Z,68.94
2022-12-04T02:22:47.095Z,68.51
2022-12-04T02:25:20.275Z,67.79
2022-12-04T02:28:04.051Z,66.30
2022-12-04T02:30:31.995Z,64.81
2022-12-04T02:33:03.975Z,63.88
2022-12-04T02:35:33.524Z,64.03
2022-12-04T02:38:27.249Z,64.36
2022-12-04T02:40:56.869Z,65.23
2022-12-04T02:43:34.242Z,68.29
2022-12-04T02:46:03.901Z,67.74
2022-12-04T02:48:32.063Z,66.21
2022-12-04T02:50:59.701Z,66.51
2022-12-04T02:53:28.807Z,68.16
2022-12-04T02:55:57.843Z,66.24
2022-12-04T02:58:26.386Z,68.69
2022-12-04T03:00:53.897Z,67.89
2022-12-04T03:03:22.102Z,68.23
2022-12-04T03:05:49.330Z,70.52
2022-12-04T03:08:17.773Z,71.10
2022-12-04T03:10:50.032Z,69.10
2022-12-04T03:13:19.171Z,71.47
2022-12-04T03:15:50.842Z,69.44
2022-12-04T03:18:19.577Z,72.61
2022-12-04T03:20:47.563Z,69.45
2022-12-04T03:23:15.925Z,70.20
2022-12-04T03:25:46.028Z,69.75
2022-12-04T03:28:22.759Z,71.94
2022-12-04T03:30:51.762Z,71.28
2022-12-04T03:33:20.412Z,70.82
2022-12-04T03:35:49.015Z,70.28
2022-12-04T03:38:25.688Z,67.44
2022-12-04T03:41:31.545Z,69.21
2022-12-04T03:44:06.899Z,70.46
2022-12-04T03:46:46.103Z,71.24
2022-12-04T03:49:21.611Z,68.54
2022-12-04T03:51:48.889Z,70.40
2022-12-04T03:54:17.753Z,69.72
2022-12-04T03:56:47.305Z,66.74
2022-12-04T03:59:16.205Z,70.41
2022-12-04T04:01:45.249Z,69.98
2022-12-04T04:04:14.381Z,70.91
2022-12-04T04:06:44.573Z,69.95
2022-12-04T04:09:16.075Z,68.35
2022-12-04T04:11:45.927Z,69.14
2022-12-04T04:14:37.903Z,68.94
2022-12-04T04:17:25.638Z,68.83
2022-12-04T04:20:12.906Z,68.69
2022-12-04T04:22:59.278Z,67.53
2022-12-04T04:25:26.990Z,67.99
2022-12-04T04:27:58.214Z,67.74
2022-12-04T04:30:25.565Z,67.28
2022-12-04T04:33:00.226Z,68.08
2022-12-04T04:35:49.024Z,70.09
2022-12-04T04:38:25.266Z,71.44
2022-12-04T04:40:57.200Z,74.62
2022-12-04T04:43:29.585Z,70.02
2022-12-04T04:46:08.330Z,69.49
2022-12-04T04:48:42.868Z,70.52
2022-12-04T04:51:10.398Z,70.26
2022-12-04T04:53:39.459Z,70.48
2022-12-04T04:56:06.921Z,68.24
2022-12-04T04:58:34.958Z,69.53
2022-12-04T05:01:09.004Z,69.11
2022-12-04T05:03:36.584Z,69.40
2022-12-04T05:06:04.026Z,67.20
2022-12-04T05:08:31.204Z,66.51
2022-12-04T05:10:58.732Z,65.72
2022-12-04T05:13:27.083Z,70.69
2022-12-04T05:16:04.702Z,70.48
2022-12-04T05:18:32.520Z,70.50
2022-12-04T05:20:59.708Z,69.10
2022-12-04T05:23:26.987Z,72.22
2022-12-04T05:26:01.205Z,67.19
2022-12-04T05:28:28.761Z,71.55
2022-12-04T05:30:56.779Z,70.90
2022-12-04T05:33:24.224Z,66.69
2022-12-04T05:35:58.345Z,66.13
2022-12-04T05:38:25.915Z,66.18
2022-12-04T05:40:53.189Z,66.95
2022-12-04T05:43:20.387Z,65.38
2022-12-04T05:45:47.860Z,64.21
2022-12-04T05:48:15.457Z,64.96
2022-12-04T05:50:42.720Z,64.80
2022-12-04T05:53:10.227Z,65.66
2022-12-04T05:55:37.429Z,67.93
2022-12-04T05:58:04.665Z,67.43
2022-12-04T06:00:32.177Z,68.23
2022-12-04T06:02:59.812Z,66.15
2022-12-04T06:05:27.113Z,62.63
2022-12-04T06:07:54.461Z,65.83
2022-12-04T06:10:21.972Z,67.60
2022-12-04T06:12:49.192Z,65.22
2022-12-04T06:15:16.475Z,64.48
2022-12-04T06:17:43.964Z,64.87
2022-12-04T06:20:12.088Z,65.04
2022-12-04T06:22:39.496Z,66.30
2022-12-04T06:25:07.231Z,68.10
2022-12-04T06:27:34.523Z,66.20
2022-12-04T06:30:01.805Z,63.64
2022-12-04T06:32:30.172Z,65.19
2022-12-04T06:34:57.384Z,63.60
2022-12-04T06:37:25.015Z,65.82
2022-12-04T06:39:52.806Z,65.44
2022-12-04T06:42:20.230Z,64.01
2022-12-04T06:44:47.453Z,63.95
2022-12-04T06:47:14.893Z,61.80
2022-12-04T06:49:42.359Z,61.82
2022-12-04T06:52:09.571Z,57.08
2022-12-04T06:54:37.236Z,56.11
2022-12-04T06:57:04.416Z,56.48
2022-12-04T06:59:32.668Z,55.26
2022-12-04T07:02:00.297Z,56.10
2022-12-04T07:04:27.574Z,59.47
2022-12-04T07:06:54.808Z,55.67
2022-12-04T07:09:23.199Z,59.64
2022-12-04T07:11:50.450Z,58.90
2022-12-04T07:14:17.669Z,58.01
2022-12-04T07:16:45.248Z,60.18
2022-12-04T07:19:13.711Z,57.53
2022-12-04T07:21:41.377Z,57.46
2022-12-04T07:24:09.207Z,59.90
2022-12-04T07:26:36.503Z,61.04
2022-12-04T07:29:03.774Z,61.09
2022-12-04T07:31:31.340Z,60.07
2022-12-04T07:33:58.926Z,60.99
2022-12-04T07:36:26.525Z,58.14
2022-12-04T07:38:56.983Z,58.48
2022-12-04T07:41:24.312Z,60.49
2022-12-04T07:43:51.615Z,58.21
2022-12-04T07:46:20.891Z,54.42
2022-12-04T07:48:48.128Z,55.96
2022-12-04T07:51:21.888Z,54.57
2022-12-04T07:53:50.302Z,55.76
2022-12-04T07:56:17.708Z,55.09
2022-12-04T07:58:45.166Z,53.29
2022-12-04T08:01:12.785Z,56.67
2022-12-04T08:03:46.804Z,56.21
2022-12-04T08:06:14.887Z,62.03
2022-12-04T08:08:42.403Z,57.99
2022-12-04T08:11:10.547Z,59.07
2022-12-04T08:13:37.830Z,59.81
2022-12-04T08:16:05.775Z,59.07
2022-12-04T08:18:33.206Z,57.90
2022-12-04T08:21:04.555Z,56.27
2022-12-04T08:23:32.048Z,57.93
2022-12-04T08:26:00.429Z,58.56
2022-12-04T08:28:27.736Z,59.58
2022-12-04T08:30:55.325Z,58.34
2022-12-04T08:33:22.783Z,56.22
2022-12-04T08:35:50.241Z,60.72
2022-12-04T08:38:18.069Z,57.74
2022-12-04T08:40:45.621Z,57.95
2022-12-04T08:43:13.181Z,56.77
2022-12-04T08:45:40.820Z,54.99
2022-12-04T08:48:08.093Z,57.46
2022-12-04T08:50:35.498Z,57.13
2022-12-04T08:53:03.052Z,57.36
2022-12-04T08:55:30.294Z,56.56
2022-12-04T08:57:57.578Z,59.85
2022-12-04T09:00:27.276Z,55.81
2022-12-04T09:02:54.565Z,57.30
2022-12-04T09:05:21.769Z,55.87
2022-12-04T09:07:49.479Z,55.69
2022-12-04T09:10:16.880Z,54.20
2022-12-04T09:12:44.104Z,55.41
2022-12-04T09:15:11.670Z,56.16
2022-12-04T09:17:38.933Z,56.67
2022-12-04T09:20:07.200Z,56.77
2022-12-04T09:22:57.803Z,56.59
2022-12-04T09:25:23.979Z,56.14
2022-12-04T09:27:51.626Z,55.49
2022-12-04T09:30:18.983Z,56.82
2022-12-04T09:32:46.264Z,55.94
2022-12-04T09:35:13.903Z,56.83
2022-12-04T09:37:41.355Z,57.86
2022-12-04T09:40:27.532Z,56.37
2022-12-04T09:43:18.706Z,57.36
2022-12-04T09:45:47.036Z,57.13
2022-12-04T09:48:14.626Z,56.98
2022-12-04T09:50:42.711Z,55.42
2022-12-04T09:53:17.385Z,58.79
2022-12-04T09:55:45.683Z,55.62
2022-12-04T09:58:14.670Z,55.03
2022-12-04T10:00:42.928Z,53.20
2022-12-04T10:03:13.656Z,53.41
2022-12-04T10:05:59.700Z,53.09
2022-12-04T10:08:37.378Z,52.29
2022-12-04T10:11:27.680Z,54.42
2022-12-04T10:14:04.461Z,54.97
2022-12-04T10:16:50.643Z,54.77
2022-12-04T10:19:36.808Z,51.94
2022-12-04T10:22:09.527Z,52.04
2022-12-04T10:24:50.096Z,52.49
2022-12-04T10:27:22.447Z,50.52
2022-12-04T10:29:56.264Z,50.00
2022-12-04T10:32:27.664Z,47.70
2022-12-04T10:34:56.373Z,50.19
2022-12-04T10:37:23.689Z,49.45
2022-12-04T10:39:51.091Z,48.83
2022-12-04T10:42:25.309Z,49.76
2022-12-04T10:44:52.976Z,48.57
2022-12-04T10:47:22.218Z,51.94
2022-12-04T10:49:49.529Z,50.62
2022-12-04T10:52:16.919Z,47.87
2022-12-04T10:54:52.122Z,48.08
2022-12-04T10:57:19.440Z,48.13
2022-12-04T10:59:55.431Z,46.53
2022-12-04T11:02:30.404Z,50.26
2022-12-04T11:04:59.385Z,50.70
2022-12-04T11:07:27.404Z,49.45
2022-12-04T11:10:04.640Z,49.91
2022-12-04T11:12:32.437Z,47.50
2022-12-04T11:15:00.433Z,46.73
2022-12-04T11:17:27.690Z,47.05
2022-12-04T11:20:21.683Z,48.07
2022-12-04T11:22:56.966Z,47.42
2022-12-04T11:25:28.271Z,48.96
2022-12-04T11:27:56.120Z,52.20
2022-12-04T11:30:30.091Z,51.24
2022-12-04T11:32:57.630Z,49.56
2022-12-04T11:35:25.433Z,50.88
2022-12-04T11:38:12.568Z,50.79
2022-12-04T11:40:40.399Z,51.53
2022-12-04T11:43:10.756Z,51.95
2022-12-04T11:45:38.028Z,52.40
2022-12-04T11:48:15.901Z,52.32
2022-12-04T11:50:49.657Z,52.34
2022-12-04T11:53:27.252Z,53.07
2022-12-04T11:56:14.131Z,53.51
2022-12-04T11:59:00.854Z,55.02
2022-12-04T12:01:37.142Z,55.79
2022-12-04T12:04:07.574Z,56.53
2022-12-04T12:06:38.107Z,54.45
2022-12-04T12:09:05.551Z,54.60
2022-12-04T12:11:37.700Z,54.79
2022-12-04T12:14:23.860Z,55.70
2022-12-04T12:17:06.475Z,56.34
2022-12-04T12:19:45.862Z,55.03
2022-12-04T12:22:13.436Z,54.25
2022-12-04T12:25:03.411Z,57.27
2022-12-04T12:27:30.954Z,57.40
2022-12-04T12:30:01.290Z,56.52
2022-12-04T12:32:31.660Z,54.63
2022-12-04T12:34:59.444Z,55.06
2022-12-04T12:37:28.879Z,54.61
2022-12-04T12:40:25.655Z,57.30
2022-12-04T12:42:58.703Z,55.83
2022-12-04T12:45:46.850Z,55.28
2022-12-04T12:48:22.547Z,56.58
2022-12-04T12:51:08.854Z,55.10
2022-12-04T12:53:40.095Z,55.45
2022-12-04T12:56:10.671Z,56.68
2022-12-04T12:58:44.503Z,57.12
2022-12-04T13:01:22.749Z,58.58
2022-12-04T13:04:19.782Z,57.72
2022-12-04T13:06:47.327Z,56.98
2022-12-04T13:09:20.628Z,55.17
2022-12-04T13:11:49.034Z,55.42
2022-12-04T13:14:16.612Z,57.31
2022-12-04T13:16:46.993Z,58.10
2022-12-04T13:19:18.705Z,60.00
2022-12-04T13:21:47.722Z,58.06
2022-12-04T13:24:33.707Z,58.49
2022-12-04T13:27:20.015Z,59.77
2022-12-04T13:29:56.488Z,59.20
2022-12-04T13:32:33.542Z,59.05
2022-12-04T13:35:00.737Z,58.97
2022-12-04T13:37:28.343Z,58.02
2022-12-04T13:40:05.007Z,59.95
2022-12-04T13:42:32.623Z,58.96
2022-12-04T13:45:00.628Z,59.88
2022-12-04T13:47:32.891Z,61.51
2022-12-04T13:50:18.697Z,61.22
2022-12-04T13:52:47.379Z,61.42
2022-12-04T13:55:24.246Z,59.48
2022-12-04T13:57:59.078Z,60.52
2022-12-04T14:00:29.349Z,58.96
2022-12-04T14:03:01.072Z,57.04
2022-12-04T14:05:29.876Z,58.65
2022-12-04T14:08:05.708Z,58.99
2022-12-04T14:10:35.882Z,59.17
2022-12-04T14:13:08.096Z,61.41
2022-12-04T14:15:36.178Z,61.40
2022-12-04T14:18:16.590Z,60.32
2022-12-04T14:20:44.660Z,58.54
2022-12-04T14:23:15.238Z,61.59
2022-12-04T14:25:42.663Z,60.71
2022-12-04T14:28:14.111Z,61.21
2022-12-04T14:30:41.882Z,60.60
2022-12-04T14:33:12.362Z,59.91
2022-12-04T14:35:47.971Z,59.83
2022-12-04T14:38:17.003Z,56.57
2022-12-04T14:40:45.469Z,57.73
2022-12-04T14:43:22.888Z,61.21
2022-12-04T14:45:51.411Z,60.39
2022-12-04T14:48:45.552Z,60.91
2022-12-04T14:51:22.397Z,61.09
2022-12-04T14:54:08.416Z,62.07
2022-12-04T14:56:54.830Z,59.02
2022-12-04T14:59:22.703Z,59.43
2022-12-04T15:01:50.868Z,58.99
2022-12-04T15:04:18.352Z,58.74
2022-12-04T15:06:46.594Z,58.32
2022-12-04T15:09:35.630Z,57.13
2022-12-04T15:12:31.076Z,58.14
2022-12-04T15:14:59.235Z,57.01
2022-12-04T15:17:26.539Z,55.04
2022-12-04T15:19:53.804Z,56.49
2022-12-04T15:22:22.814Z,55.71
2022-12-04T15:24:50.755Z,56.96
2022-12-04T15:27:18.844Z,55.38
2022-12-04T15:29:49.133Z,59.20
2022-12-04T15:32:16.759Z,58.21
2022-12-04T15:34:54.295Z,57.86
2022-12-04T15:37:29.343Z,55.37
2022-12-04T15:39:57.271Z,56.47
2022-12-04T15:42:29.367Z,57.70
2022-12-04T15:45:03.327Z,55.89
2022-12-04T15:47:33.172Z,56.16
2022-12-04T15:50:15.589Z,55.94
2022-12-04T15:53:01.524Z,55.70
2022-12-04T15:55:31.352Z,55.50
2022-12-04T15:58:00.926Z,56.67
2022-12-04T16:00:32.607Z,56.31
2022-12-04T16:03:00.322Z,59.08
2022-12-04T16:05:29.592Z,60.70
2022-12-04T16:07:58.004Z,60.10
2022-12-04T16:10:28.279Z,57.85
2022-12-04T16:12:56.612Z,58.10
2022-12-04T16:15:24.410Z,58.36
2022-12-04T16:17:51.973Z,57.00
2022-12-04T16:20:20.171Z,60.87
2022-12-04T16:22:47.906Z,63.53
2022-12-04T16:25:15.491Z,59.46
2022-12-04T16:27:42.893Z,59.52
2022-12-04T16:30:10.312Z,61.10
2022-12-04T16:32:38.110Z,57.92
2022-12-04T16:35:06.481Z,60.03
2022-12-04T16:37:33.921Z,59.49
2022-12-04T16:40:06.400Z,60.51
2022-12-04T16:42:34.999Z,57.96
2022-12-04T16:45:02.553Z,58.55
2022-12-04T16:47:29.959Z,59.75
2022-12-04T16:49:57.426Z,62.98
2022-12-04T16:52:25.125Z,62.65
2022-12-04T16:54:52.588Z,60.72
2022-12-04T16:57:19.932Z,59.46
2022-12-04T16:59:48.021Z,58.84
2022-12-04T17:02:16.340Z,59.05
2022-12-04T17:04:43.904Z,58.66
2022-12-04T17:07:11.406Z,59.20
2022-12-04T17:09:38.746Z,58.80
2022-12-04T17:12:06.184Z,59.20
2022-12-04T17:14:33.738Z,60.99
2022-12-04T17:17:02.256Z,60.06
2022-12-04T17:19:29.681Z,60.71
2022-12-04T17:21:58.340Z,60.81
2022-12-04T17:24:25.531Z,62.12
2022-12-04T17:26:52.861Z,60.96
2022-12-04T17:29:21.775Z,59.95
2022-12-04T17:31:49.150Z,59.99
2022-12-04T17:34:16.455Z,63.19
2022-12-04T17:36:44.089Z,60.27
2022-12-04T17:39:13.482Z,59.26
2022-12-04T17:41:40.902Z,58.47
2022-12-04T17:44:08.637Z,61.18
2022-12-04T17:46:36.180Z,64.11
2022-12-04T17:49:07.073Z,64.29
2022-12-04T17:51:35.919Z,63.88
2022-12-04T17:54:03.666Z,62.84
2022-12-04T17:56:31.118Z,61.31
2022-12-04T17:58:58.602Z,60.30
2022-12-04T18:01:27.795Z,59.50
2022-12-04T18:04:01.880Z,59.16
2022-12-04T18:06:30.342Z,63.45
2022-12-04T18:08:58.054Z,63.64
2022-12-04T18:11:26.246Z,62.69
2022-12-04T18:13:54.203Z,63.52
2022-12-04T18:16:22.212Z,63.36
2022-12-04T18:18:50.865Z,62.72
2022-12-04T18:21:18.194Z,64.89
2022-12-04T18:23:46.194Z,63.56
2022-12-04T18:26:14.437Z,64.14
2022-12-04T18:28:42.354Z,65.91
2022-12-04T18:31:10.297Z,64.59
2022-12-04T18:33:38.621Z,64.10
2022-12-04T18:36:06.356Z,61.53
2022-12-04T18:38:33.870Z,63.17
2022-12-04T18:41:02.849Z,62.96
2022-12-04T18:43:32.987Z,62.68
2022-12-04T18:46:06.858Z,62.91
2022-12-04T18:48:35.254Z,67.31
2022-12-04T18:51:13.104Z,64.01
2022-12-04T18:53:40.490Z,63.13
2022-12-04T18:56:08.019Z,63.90
2022-12-04T18:58:35.344Z,65.24
2022-12-04T19:01:06.902Z,66.63
2022-12-04T19:03:34.893Z,69.12
2022-12-04T19:06:02.721Z,66.25
2022-12-04T19:08:33.710Z,65.87
2022-12-04T19:11:10.373Z,69.27
2022-12-04T19:13:37.769Z,68.21
2022-12-04T19:16:05.672Z,66.54
2022-12-04T19:18:33.948Z,69.01
2022-12-04T19:21:01.387Z,65.82
2022-12-04T19:23:29.060Z,65.62
2022-12-04T19:25:56.661Z,66.29
2022-12-04T19:28:24.125Z,65.86
2022-12-04T19:30:51.710Z,66.05
2022-12-04T19:33:21.203Z,68.00
2022-12-04T19:35:59.002Z,68.10
2022-12-04T19:38:27.037Z,69.92
2022-12-04T19:41:09.447Z,68.93
2022-12-04T19:43:41.185Z,68.09
2022-12-04T19:46:09.309Z,69.14
2022-12-04T19:48:40.019Z,66.71
2022-12-04T19:51:15.032Z,65.74
2022-12-04T19:53:43.602Z,65.82
2022-12-04T19:56:15.486Z,65.76
2022-12-04T19:58:43.186Z,68.69
2022-12-04T20:01:11.461Z,65.03
2022-12-04T20:03:39.343Z,68.77
2022-12-04T20:06:12.074Z,67.87
2022-12-04T20:08:39.913Z,65.22
2022-12-04T20:11:08.510Z,67.67
2022-12-04T20:13:36.425Z,66.95
2022-12-04T20:16:04.582Z,67.33
2022-12-04T20:18:32.085Z,67.35
2022-12-04T20:21:00.657Z,64.64
2022-12-04T20:23:28.673Z,64.92
2022-12-04T20:25:55.992Z,67.00
2022-12-04T20:28:23.205Z,67.51
2022-12-04T20:30:50.869Z,66.17
2022-12-04T20:33:18.146Z,67.03
2022-12-04T20:35:45.385Z,67.37
2022-12-04T20:38:14.230Z,65.07
2022-12-04T20:40:41.498Z,64.23
2022-12-04T20:43:08.713Z,65.00
2022-12-04T20:45:36.401Z,63.24
2022-12-04T20:48:04.394Z,64.30
2022-12-04T20:50:32.128Z,62.24
2022-12-04T20:52:59.840Z,62.26
2022-12-04T20:55:27.083Z,62.03
2022-12-04T20:57:55.176Z,64.46
2022-12-04T21:00:23.035Z,61.67
2022-12-04T21:02:50.407Z,63.11
2022-12-04T21:05:17.740Z,62.65
2022-12-04T21:07:45.311Z,62.68
2022-12-04T21:10:12.588Z,60.48
2022-12-04T21:12:58.875Z,62.36
2022-12-04T21:15:45.340Z,64.70
2022-12-04T21:18:12.799Z,63.78
2022-12-04T21:20:40.281Z,60.39
2022-12-04T21:23:07.508Z,61.14
2022-12-04T21:25:34.802Z,64.37
2022-12-04T21:28:02.325Z,60.54
2022-12-04T21:30:29.519Z,60.43
2022-12-04T21:32:56.805Z,62.24
2022-12-04T21:35:24.347Z,61.95
2022-12-04T21:37:51.565Z,61.87
2022-12-04T21:40:18.938Z,61.52
2022-12-04T21:42:46.496Z,61.24
2022-12-04T21:45:13.746Z,59.89
2022-12-04T21:47:40.964Z,60.67
2022-12-04T21:50:08.601Z,61.41
2022-12-04T21:52:35.865Z,61.85
2022-12-04T21:55:03.055Z,58.86
2022-12-04T21:57:30.690Z,60.20
2022-12-04T21:59:58.213Z,61.97
2022-12-04T22:02:25.712Z,60.90
2022-12-04T22:04:53.289Z,60.76
2022-12-04T22:07:20.531Z,59.24
2022-12-04T22:09:47.737Z,59.16
2022-12-04T22:12:41.226Z,62.24
2022-12-04T22:15:02.490Z,62.08
2022-12-04T22:17:30.151Z,60.81
2022-12-04T22:19:57.647Z,62.11
2022-12-04T22:22:25.096Z,61.69
2022-12-04T22:24:52.548Z,60.54
2022-12-04T22:27:19.822Z,62.79
2022-12-04T22:29:50.694Z,62.03
2022-12-04T22:32:18.948Z,63.23
2022-12-04T22:34:47.859Z,63.06
2022-12-04T22:37:15.103Z,59.12
2022-12-04T22:39:42.585Z,59.77
2022-12-04T22:42:09.794Z,62.28
2022-12-04T22:44:37.526Z,60.13
2022-12-04T22:47:05.054Z,61.38
2022-12-04T22:49:32.381Z,61.53
2022-12-04T22:51:59.736Z,60.51
2022-12-04T22:54:27.272Z,59.52
2022-12-04T22:56:54.503Z,58.46
2022-12-04T22:59:21.733Z,60.96
2022-12-04T23:01:49.285Z,61.16
2022-12-04T23:04:16.591Z,60.23
2022-12-04T23:06:43.865Z,58.96
2022-12-04T23:09:13.500Z,56.32
2022-12-04T23:11:40.687Z,56.93
2022-12-04T23:14:08.551Z,58.21
2022-12-04T23:16:36.885Z,58.63
2022-12-04T23:19:04.626Z,61.12
2022-12-04T23:21:31.860Z,59.02
2022-12-04T23:23:59.446Z,58.70
2022-12-04T23:26:27.707Z,57.15
2022-12-04T23:28:55.144Z,56.87
2022-12-04T23:31:23.181Z,60.29
2022-12-04T23:33:50.544Z,57.99
2022-12-04T23:36:17.803Z,61.34
2022-12-04T23:38:45.386Z,58.32
2022-12-04T23:41:12.539Z,59.94
2022-12-04T23:43:39.903Z,57.95
2022-12-04T23:46:11.251Z,57.65
2022-12-04T23:48:39.350Z,56.82
2022-12-04T23:51:06.895Z,60.42
2022-12-04T23:53:34.537Z,56.48
2022-12-04T23:56:08.021Z,59.19
2022-12-04T23:58:35.627Z,56.65
